Time;durP1;ratioP1;P1;durP2;ratioP2;P2;SDS_P1;SDS_P2;PMS_P1;PMS_P2;Temp;Humidity;BMP_temperature;BMP_pressure;BME280_temperature;BME280_humidity;BME280_pressure;Samples;Min_cycle;Max_cycle;Signal;HPM_P1;HPM_P2
2024/01/22 00:02:23;;;;;;;81.40;43.00;;;;;;;0.50;64.76;100182.54;231475;198;137668;-56
2024/01/22 00:07:26;;;;;;;77.90;42.60;;;;;;;0.43;64.85;100181.85;231481;205;153133;-57
2024/01/22 00:12:30;;;;;;;81.20;42.30;;;;;;;0.36;64.80;100177.70;231503;199;137352;-57
2024/01/22 00:17:33;;;;;;;86.00;45.00;;;;;;;0.29;64.85;100170.55;231635;206;138648;-58
2024/01/22 00:22:37;;;;;;;84.60;45.60;;;;;;;0.26;64.82;100168.64;231654;198;153245;-57
2024/01/22 00:27:40;;;;;;;81.30;43.10;;;;;;;0.23;64.93;100174.58;231552;199;139101;-56
2024/01/22 00:32:43;;;;;;;84.30;44.10;;;;;;;0.16;64.99;100170.05;231568;199;138252;-57
2024/01/22 00:37:47;;;;;;;75.80;42.60;;;;;;;0.10;64.80;100173.20;231610;199;155357;-58
2024/01/22 00:42:50;;;;;;;80.60;44.00;;;;;;;0.02;64.53;100170.92;231538;198;138854;-57
2024/01/22 00:47:53;;;;;;;85.60;45.80;;;;;;;-0.07;64.58;100179.84;231615;202;138536;-57
2024/01/22 00:52:57;;;;;;;85.10;43.90;;;;;;;-0.14;64.65;100177.92;231643;203;153833;-57
2024/01/22 00:58:00;;;;;;;83.80;45.00;;;;;;;-0.21;64.54;100184.55;231505;202;138583;-57
2024/01/22 01:03:04;;;;;;;84.90;46.60;;;;;;;-0.32;64.51;100183.15;231509;199;137526;-57
2024/01/22 01:08:07;;;;;;;87.30;46.50;;;;;;;-0.36;64.41;100200.92;231523;199;153343;-55
2024/01/22 01:13:10;;;;;;;90.60;48.00;;;;;;;-0.40;64.51;100187.51;231482;199;141828;-57
2024/01/22 01:18:13;;;;;;;86.50;46.80;;;;;;;-0.41;64.42;100162.58;231581;199;140055;-57
2024/01/22 01:23:16;;;;;;;85.70;46.00;;;;;;;-0.40;64.47;100156.30;231638;199;153177;-56
2024/01/22 01:28:20;;;;;;;87.10;45.70;;;;;;;-0.46;64.32;100146.36;231578;203;137693;-56
2024/01/22 01:33:23;;;;;;;76.90;43.00;;;;;;;-0.53;64.57;100134.34;231563;198;139302;-56
2024/01/22 01:38:26;;;;;;;78.90;43.80;;;;;;;-0.54;64.54;100139.20;231546;203;153225;-58
2024/01/22 01:43:29;;;;;;;81.50;44.00;;;;;;;-0.59;64.42;100136.06;231498;205;138252;-54
2024/01/22 01:48:33;;;;;;;86.70;47.00;;;;;;;-0.66;64.33;100120.20;231529;199;138503;-57
2024/01/22 01:53:36;;;;;;;82.10;45.10;;;;;;;-0.71;64.61;100112.53;231670;203;153512;-56
2024/01/22 01:58:40;;;;;;;86.60;45.80;;;;;;;-0.74;64.62;100115.31;231509;198;137276;-54
2024/01/22 02:03:43;;;;;;;82.50;44.70;;;;;;;-0.79;64.55;100112.53;231586;205;137926;-55
2024/01/22 02:08:51;;;;;;;77.20;42.40;;;;;;;-0.80;64.51;100098.94;231525;198;153079;-56
2024/01/22 02:13:54;;;;;;;78.30;44.50;;;;;;;-0.88;64.71;100084.30;231538;199;138156;-56
2024/01/22 02:18:57;;;;;;;77.20;43.80;;;;;;;-0.96;64.67;100071.58;231610;198;141108;-56
2024/01/22 02:24:01;;;;;;;78.70;43.10;;;;;;;-0.99;64.61;100070.17;231616;198;153455;-57
2024/01/22 02:29:04;;;;;;;83.80;45.00;;;;;;;-1.03;64.39;100064.95;231696;198;139204;-56
2024/01/22 02:34:07;;;;;;;84.20;46.00;;;;;;;-1.08;64.52;100059.88;231592;202;138401;-54
2024/01/22 02:39:13;;;;;;;88.70;47.10;;;;;;;-1.09;64.28;100044.55;231597;198;153285;-56
2024/01/22 02:44:16;;;;;;;81.30;44.80;;;;;;;-1.10;64.23;100035.67;231589;198;139525;-55
2024/01/22 02:49:20;;;;;;;92.60;47.10;;;;;;;-1.14;64.21;100031.50;231490;198;140001;-56
2024/01/22 02:54:23;;;;;;;91.40;48.00;;;;;;;-1.21;63.91;100022.27;231549;203;153066;-56
2024/01/22 02:59:26;;;;;;;82.20;46.40;;;;;;;-1.28;63.96;100017.55;231706;205;138479;-54
2024/01/22 03:04:29;;;;;;;96.10;49.80;;;;;;;-1.31;64.21;100013.37;231573;198;139106;-53
2024/01/22 03:09:33;;;;;;;90.00;46.10;;;;;;;-1.36;64.45;100015.80;231569;198;154474;-52
2024/01/22 03:14:37;;;;;;;88.50;46.80;;;;;;;-1.37;65.04;100003.44;231550;199;142887;-51
2024/01/22 03:19:40;;;;;;;83.30;45.80;;;;;;;-1.29;65.08;99996.48;231525;198;137939;-53
2024/01/22 03:24:46;;;;;;;86.80;45.40;;;;;;;-1.27;64.64;99995.61;231709;205;153249;-54
2024/01/22 03:29:49;;;;;;;88.30;46.20;;;;;;;-1.28;64.69;99997.52;231628;199;137687;-54
2024/01/22 03:34:52;;;;;;;82.10;44.00;;;;;;;-1.28;64.59;99987.27;231695;205;138374;-55
2024/01/22 03:39:55;;;;;;;105.70;46.50;;;;;;;-1.33;64.58;99998.05;231593;203;153853;-55
2024/01/22 03:44:59;;;;;;;96.50;47.00;;;;;;;-1.36;64.55;100002.74;231423;198;140551;-55
2024/01/22 03:50:03;;;;;;;100.60;47.30;;;;;;;-1.38;64.39;100000.30;231620;197;141502;-55
2024/01/22 03:55:08;;;;;;;93.40;47.40;;;;;;;-1.39;63.89;99986.20;231545;206;153862;-56
2024/01/22 04:00:12;;;;;;;94.60;46.60;;;;;;;-1.45;64.11;99976.10;231613;205;138257;-54
2024/01/22 04:05:15;;;;;;;100.60;49.70;;;;;;;-1.52;64.12;99975.22;231796;199;144021;-54
2024/01/22 04:10:18;;;;;;;84.70;45.60;;;;;;;-1.59;64.73;99959.91;231600;198;154184;-56
2024/01/22 04:15:22;;;;;;;91.80;49.10;;;;;;;-1.49;64.84;99949.83;231575;198;139858;-55
2024/01/22 04:20:26;;;;;;;99.00;49.70;;;;;;;-1.44;64.63;99949.48;231613;202;139106;-53
2024/01/22 04:25:29;;;;;;;87.50;44.70;;;;;;;-1.37;64.34;99950.18;231624;202;153570;-55
2024/01/22 04:30:32;;;;;;;89.00;45.40;;;;;;;-1.33;64.34;99949.66;231656;198;139264;-55
2024/01/22 04:35:39;;;;;;;90.40;47.20;;;;;;;-1.31;64.39;99943.40;231682;202;138519;-56
2024/01/22 04:40:42;;;;;;;83.70;45.30;;;;;;;-1.29;64.22;99934.36;231631;199;155529;-54
2024/01/22 04:45:45;;;;;;;86.00;45.90;;;;;;;-1.32;63.98;99929.29;231616;198;137928;-52
2024/01/22 04:50:48;;;;;;;93.30;48.40;;;;;;;-1.34;63.60;99922.52;231639;198;138981;-56
2024/01/22 04:55:52;;;;;;;87.50;47.90;;;;;;;-1.39;63.51;99916.08;231580;203;153767;-54
2024/01/22 05:00:54;;;;;;;79.30;42.40;;;;;;;-1.40;63.18;99913.98;231535;202;138837;-55
2024/01/22 05:05:58;;;;;;;111.90;60.40;;;;;;;-1.31;64.74;99921.81;231341;203;138743;-56
2024/01/22 05:11:01;;;;;;;80.50;45.00;;;;;;;-1.28;63.14;99918.52;231650;199;155523;-55
2024/01/22 05:16:05;;;;;;;102.60;58.90;;;;;;;-1.35;62.95;99920.25;231509;203;138330;-53
2024/01/22 05:21:08;;;;;;;82.90;44.30;;;;;;;-1.36;63.46;99914.15;231579;203;142356;-51
2024/01/22 05:26:11;;;;;;;69.60;37.70;;;;;;;-1.38;63.33;99920.25;231030;203;154085;-55
2024/01/22 05:31:14;;;;;;;64.10;35.90;;;;;;;-1.43;63.95;99915.71;231515;198;140312;-54
2024/01/22 05:36:17;;;;;;;72.40;40.00;;;;;;;-1.36;64.28;99905.10;231604;205;139127;-53
2024/01/22 05:41:20;;;;;;;77.40;40.70;;;;;;;-1.34;63.87;99899.89;231706;206;153782;-54
2024/01/22 05:46:23;;;;;;;80.70;41.50;;;;;;;-1.36;63.45;99905.27;231559;199;139770;-55
2024/01/22 05:51:27;;;;;;;81.20;42.80;;;;;;;-1.42;62.70;99902.14;231563;198;137594;-56
2024/01/22 05:56:31;;;;;;;72.10;40.10;;;;;;;-1.49;62.71;99893.61;231528;205;153003;-55
2024/01/22 06:01:34;;;;;;;73.00;40.70;;;;;;;-1.54;62.32;99888.23;231536;198;141831;-55
2024/01/22 06:06:37;;;;;;;554.90;392.70;;;;;;;-1.57;62.61;99884.57;231664;199;138374;-55
2024/01/22 06:11:41;;;;;;;91.30;52.50;;;;;;;-1.55;62.93;99879.35;231730;198;154985;-55
2024/01/22 06:16:46;;;;;;;73.00;42.00;;;;;;;-1.48;62.72;99876.20;231534;198;138653;-53
2024/01/22 06:21:49;;;;;;;74.70;40.70;;;;;;;-1.52;62.57;99876.56;231612;198;138723;-55
2024/01/22 06:26:53;;;;;;;70.00;38.60;;;;;;;-1.52;62.62;99876.91;231567;203;155218;-54
2024/01/22 06:31:56;;;;;;;67.30;37.50;;;;;;;-1.46;62.67;99868.73;231562;198;137600;-55
2024/01/22 06:36:59;;;;;;;73.90;37.90;;;;;;;-1.43;62.85;99857.42;231591;205;138393;-55
2024/01/22 06:42:03;;;;;;;70.90;36.10;;;;;;;-1.42;62.81;99846.30;231598;199;153371;-55
2024/01/22 06:47:06;;;;;;;68.50;37.00;;;;;;;-1.40;62.85;99835.49;231716;198;138792;-55
2024/01/22 06:52:09;;;;;;;64.90;35.80;;;;;;;-1.36;62.65;99829.21;231595;202;139233;-55
2024/01/22 06:57:12;;;;;;;65.90;37.80;;;;;;;-1.32;63.26;99827.83;231567;198;154067;-58
2024/01/22 07:02:15;;;;;;;66.10;35.70;;;;;;;-1.18;63.48;99825.36;231596;203;138629;-59
2024/01/22 07:07:18;;;;;;;69.20;37.40;;;;;;;-1.17;62.95;99813.35;231615;202;138454;-55
2024/01/22 07:12:22;;;;;;;70.70;37.70;;;;;;;-1.12;62.77;99802.38;231583;202;153598;-56
2024/01/22 07:17:26;;;;;;;60.20;35.30;;;;;;;-1.13;62.84;99798.72;231683;202;138967;-56
2024/01/22 07:22:29;;;;;;;59.90;34.60;;;;;;;-1.14;63.17;99802.02;231612;198;138740;-55
2024/01/22 07:27:32;;;;;;;67.00;36.00;;;;;;;-1.09;63.43;99789.65;231528;198;153156;-58
2024/01/22 07:32:36;;;;;;;63.70;34.60;;;;;;;-1.03;63.55;99776.92;231493;198;138954;-56
2024/01/22 07:37:42;;;;;;;87.30;47.60;;;;;;;-0.88;65.35;99770.42;231549;205;137989;-56
2024/01/22 07:42:45;;;;;;;64.70;35.80;;;;;;;-0.62;64.28;99760.54;231658;202;153453;-55
2024/01/22 07:47:49;;;;;;;57.60;32.20;;;;;;;-0.55;63.63;99747.79;231681;205;138125;-56
2024/01/22 07:52:52;;;;;;;58.50;33.20;;;;;;;-0.48;63.66;99738.51;231585;199;138709;-56
2024/01/22 07:57:55;;;;;;;67.20;33.10;;;;;;;-0.39;63.82;99721.90;231449;198;153207;-56
2024/01/22 08:02:58;;;;;;;57.50;32.90;;;;;;;-0.29;64.03;99710.31;231597;197;138721;-56
2024/01/22 08:08:03;;;;;;;62.20;33.20;;;;;;;0.06;66.10;99696.42;231591;203;138547;-56
2024/01/22 08:13:06;;;;;;;176.20;93.90;;;;;;;0.28;64.81;99684.36;231698;198;154295;-56
2024/01/22 08:18:09;;;;;;;59.10;34.10;;;;;;;0.51;64.81;99677.83;231603;203;139880;-56
2024/01/22 08:23:13;;;;;;;60.30;32.80;;;;;;;0.64;64.12;99671.92;231735;199;138923;-56
2024/01/22 08:28:16;;;;;;;55.60;32.20;;;;;;;0.72;64.45;99672.52;231540;198;153939;-56
2024/01/22 08:33:19;;;;;;;55.90;32.10;;;;;;;0.86;64.95;99662.58;231521;205;138047;-58
2024/01/22 08:38:23;;;;;;;54.10;29.30;;;;;;;1.05;64.79;99655.34;231553;198;138540;-56
2024/01/22 08:43:26;;;;;;;56.10;30.70;;;;;;;1.27;64.13;99633.89;231617;197;155587;-56
2024/01/22 08:48:30;;;;;;;59.10;29.00;;;;;;;1.50;63.91;99617.98;231610;198;137992;-56
2024/01/22 08:53:34;;;;;;;56.50;29.90;;;;;;;1.66;63.80;99612.29;231742;198;139117;-55
2024/01/22 08:58:39;;;;;;;235.80;130.80;;;;;;;1.85;64.01;99601.47;231542;199;153029;-56
2024/01/22 09:03:43;;;;;;;66.80;37.40;;;;;;;2.17;63.52;99590.20;231442;199;138236;-56
2024/01/22 09:08:46;;;;;;;57.60;30.00;;;;;;;2.41;62.40;99586.23;230678;198;143061;-54
2024/01/22 09:13:49;;;;;;;52.40;29.90;;;;;;;2.60;61.82;99582.34;231542;199;153416;-55
2024/01/22 09:18:53;;;;;;;53.80;28.80;;;;;;;2.82;61.16;99572.25;231445;199;139017;-55
2024/01/22 09:23:56;;;;;;;52.70;28.30;;;;;;;3.05;60.81;99554.19;231534;199;139658;-55
2024/01/22 09:29:00;;;;;;;49.60;27.10;;;;;;;3.29;60.94;99550.46;231434;199;153483;-55
2024/01/22 09:34:04;;;;;;;50.60;27.30;;;;;;;3.55;60.02;99537.20;231300;206;138684;-55
2024/01/22 09:39:08;;;;;;;54.90;28.40;;;;;;;3.85;59.56;99516.92;231252;206;139162;-55
2024/01/22 09:44:11;;;;;;;49.20;27.20;;;;;;;4.11;59.43;99506.55;231424;198;153714;-56
2024/01/22 09:49:14;;;;;;;50.70;28.10;;;;;;;4.39;58.94;99492.21;231487;198;137634;-55
2024/01/22 09:54:20;;;;;;;47.70;27.20;;;;;;;4.69;59.04;99482.52;231543;199;138308;-57
2024/01/22 09:59:25;;;;;;;49.30;27.90;;;;;;;5.03;58.98;99474.61;231610;198;153175;-57
2024/01/22 10:04:30;;;;;;;48.30;27.90;;;;;;;5.34;58.51;99465.83;231413;206;138626;-57
2024/01/22 10:09:34;;;;;;;53.30;29.20;;;;;;;5.60;57.71;99452.95;231467;198;143021;-57
2024/01/22 10:14:45;;;;;;;48.40;28.60;;;;;;;5.84;58.00;99445.43;231584;198;154602;-57
2024/01/22 10:19:49;;;;;;;51.70;29.20;;;;;;;6.02;57.42;99441.27;231491;199;137982;-55
2024/01/22 10:25:00;;;;;;;50.20;28.70;;;;;;;6.18;57.27;99433.80;231527;198;139226;-55
2024/01/22 10:30:14;;;;;;;49.60;28.80;;;;;;;6.34;56.35;99431.59;231501;202;154788;-57
2024/01/22 10:35:22;;;;;;;46.20;27.00;;;;;;;6.49;55.66;99434.73;231555;198;138361;-57
2024/01/22 10:40:34;;;;;;;44.10;26.60;;;;;;;6.61;54.81;99429.66;231572;202;137608;-57
2024/01/22 10:45:39;;;;;;;44.80;25.40;;;;;;;6.72;53.61;99433.98;231478;205;154361;-57
2024/01/22 10:50:43;;;;;;;44.60;24.90;;;;;;;6.84;52.75;99429.80;231528;205;141706;-57
2024/01/22 10:55:58;;;;;;;49.20;24.80;;;;;;;6.95;52.43;99428.13;231506;202;141086;-56
2024/01/22 11:01:04;;;;;;;51.10;25.90;;;;;;;7.07;51.93;99421.09;231590;198;153213;-55
2024/01/22 11:06:09;;;;;;;49.60;27.60;;;;;;;7.17;52.53;99410.11;231514;198;137393;-54
2024/01/22 11:11:13;;;;;;;45.40;27.00;;;;;;;7.25;52.52;99403.41;231725;198;138216;-56
2024/01/22 11:16:18;;;;;;;56.10;26.00;;;;;;;7.35;52.41;99403.86;231552;199;154142;-55
2024/01/22 11:21:21;;;;;;;54.90;29.70;;;;;;;7.44;52.12;99397.86;231648;202;138645;-55
2024/01/22 11:26:25;;;;;;;56.70;27.60;;;;;;;7.49;51.94;99397.05;231586;202;137861;-54
2024/01/22 11:31:30;;;;;;;36.40;18.20;;;;;;;7.54;51.07;99393.66;231514;198;153343;-55
2024/01/22 11:36:48;;;;;;;50.50;20.80;;;;;;;7.68;46.51;99393.77;231271;205;141007;-55
2024/01/22 11:41:52;;;;;;;59.40;23.00;;;;;;;7.83;46.90;99389.23;231674;198;137443;-53
2024/01/22 11:47:05;;;;;;;52.30;23.40;;;;;;;7.89;48.65;99385.43;231517;203;153189;-54
2024/01/22 11:52:18;;;;;;;44.80;20.60;;;;;;;7.94;47.47;99387.29;231566;198;139671;-55
2024/01/22 11:57:23;;;;;;;42.10;21.40;;;;;;;8.01;47.02;99384.16;231500;202;137828;-56
2024/01/22 12:02:27;;;;;;;135.00;81.50;;;;;;;8.08;44.78;99375.70;231499;199;154375;-53
2024/01/22 12:07:34;;;;;;;28.10;12.10;;;;;;;8.29;42.43;99369.23;231554;201;138442;-55
2024/01/22 12:12:38;;;;;;;23.10;10.00;;;;;;;8.48;39.73;99360.22;231357;202;138733;-55
2024/01/22 12:17:44;;;;;;;22.70;9.20;;;;;;;8.61;37.80;99353.06;231709;197;153678;-55
2024/01/22 12:23:01;;;;;;;34.70;10.50;;;;;;;8.71;36.99;99343.89;231529;198;137786;-55
2024/01/22 12:28:08;;;;;;;20.90;9.80;;;;;;;8.80;37.71;99329.66;231555;205;141534;-55
2024/01/22 12:33:23;;;;;;;22.80;8.70;;;;;;;8.87;37.05;99313.92;231431;199;154000;-54
2024/01/22 12:38:33;;;;;;;19.70;8.20;;;;;;;8.94;35.51;99306.11;231136;199;138943;-53
2024/01/22 12:43:38;;;;;;;22.90;8.90;;;;;;;9.01;35.11;99289.66;231498;199;138167;-53
2024/01/22 12:48:44;;;;;;;24.90;9.30;;;;;;;9.05;34.71;99298.48;231526;197;153083;-52
2024/01/22 12:53:48;;;;;;;26.70;8.70;;;;;;;9.08;35.67;99303.45;231586;198;137726;-54
2024/01/22 12:58:52;;;;;;;19.90;8.00;;;;;;;9.14;35.60;99307.58;231485;206;137961;-54
2024/01/22 13:03:58;;;;;;;18.10;7.90;;;;;;;9.22;34.70;99298.27;231575;197;155453;-50
2024/01/22 13:09:02;;;;;;;22.50;8.10;;;;;;;9.29;34.65;99287.14;231496;198;140590;-53
2024/01/22 13:14:06;;;;;;;26.10;7.80;;;;;;;9.37;34.32;99278.77;231471;203;138284;-52
2024/01/22 13:19:09;;;;;;;11.40;5.20;;;;;;;9.44;33.03;99249.84;231485;202;154426;-53
2024/01/22 13:24:13;;;;;;;13.60;5.00;;;;;;;9.56;32.31;99241.05;231506;206;138288;-51
2024/01/22 13:29:16;;;;;;;9.60;3.20;;;;;;;9.63;30.28;99229.48;231556;198;143160;-55
2024/01/22 13:34:20;;;;;;;6.00;2.70;;;;;;;9.69;29.11;99218.57;231372;199;154192;-54
2024/01/22 13:39:25;;;;;;;7.10;2.60;;;;;;;9.74;28.68;99211.73;231492;205;138453;-53
2024/01/22 13:44:28;;;;;;;9.60;2.30;;;;;;;9.78;28.40;99195.04;231579;202;137767;-52
2024/01/22 13:49:32;;;;;;;6.60;2.70;;;;;;;9.83;28.29;99177.55;231413;199;153386;-52
2024/01/22 13:54:36;;;;;;;7.00;2.30;;;;;;;9.82;28.35;99173.88;231558;198;138642;-52
2024/01/22 13:59:39;;;;;;;9.40;3.40;;;;;;;9.81;28.15;99156.60;231706;198;138242;-54
2024/01/22 14:04:43;;;;;;;11.80;3.60;;;;;;;9.77;28.18;99145.27;231116;203;155337;-52
2024/01/22 14:09:46;;;;;;;12.10;4.00;;;;;;;9.74;28.32;99146.17;231384;198;138678;-56
2024/01/22 14:14:53;;;;;;;9.60;3.50;;;;;;;9.71;28.26;99141.38;231540;198;137955;-55
2024/01/22 14:19:57;;;;;;;7.90;3.20;;;;;;;9.67;28.27;99148.11;231572;197;153340;-56
2024/01/22 14:25:00;;;;;;;8.20;2.90;;;;;;;9.65;27.79;99161.21;231535;198;138366;-55
2024/01/22 14:30:05;;;;;;;7.40;2.70;;;;;;;9.61;27.66;99168.52;231609;202;137927;-55
2024/01/22 14:35:08;;;;;;;7.20;2.70;;;;;;;9.56;28.05;99174.09;231480;198;154513;-53
2024/01/22 14:40:12;;;;;;;7.70;2.80;;;;;;;9.52;27.80;99155.39;231466;204;138492;-54
2024/01/22 14:45:15;;;;;;;9.80;3.00;;;;;;;9.46;27.96;99152.50;231471;198;137877;-57
2024/01/22 14:50:18;;;;;;;8.30;2.90;;;;;;;9.40;28.00;99140.30;231271;198;153423;-55
2024/01/22 14:55:23;;;;;;;9.90;3.10;;;;;;;9.31;28.05;99137.05;231559;198;142542;-54
2024/01/22 15:00:27;;;;;;;9.80;3.50;;;;;;;9.25;28.00;99134.92;231646;205;138431;-55
2024/01/22 15:05:31;;;;;;;13.10;3.40;;;;;;;9.25;28.06;99119.72;231616;199;154332;-55
2024/01/22 15:10:35;;;;;;;13.20;3.60;;;;;;;9.25;28.31;99118.46;231554;198;138690;-55
2024/01/22 15:15:43;;;;;;;9.60;3.40;;;;;;;9.19;27.90;99128.84;231579;198;138187;-56
2024/01/22 15:20:47;;;;;;;3.80;2.40;;;;;;;9.05;27.46;99129.98;231436;198;153579;-54
2024/01/22 15:25:51;;;;;;;4.20;2.30;;;;;;;8.98;27.00;99136.53;231371;199;137745;-56
2024/01/22 15:30:55;;;;;;;10.10;2.30;;;;;;;9.00;25.84;99132.91;231568;198;137833;-56
2024/01/22 15:35:58;;;;;;;5.40;2.50;;;;;;;9.05;25.07;99124.15;231634;202;153755;-56
2024/01/22 15:41:03;;;;;;;6.10;2.40;;;;;;;9.12;24.95;99115.28;231499;199;137592;-56
2024/01/22 15:46:07;;;;;;;5.80;2.60;;;;;;;9.17;24.49;99101.36;231504;203;141124;-55
2024/01/22 15:51:10;;;;;;;5.20;2.60;;;;;;;9.21;24.48;99071.59;231523;199;154489;-56
2024/01/22 15:56:13;;;;;;;5.20;2.20;;;;;;;9.23;24.56;99062.23;231490;205;138439;-53
2024/01/22 16:01:17;;;;;;;5.20;2.50;;;;;;;9.27;24.88;99062.96;231522;203;138615;-56
2024/01/22 16:06:25;;;;;;;6.50;2.60;;;;;;;9.26;25.02;99038.05;231464;198;153926;-57
2024/01/22 16:11:29;;;;;;;11.00;2.90;;;;;;;9.23;25.07;99008.61;231601;198;138609;-57
2024/01/22 16:16:33;;;;;;;6.30;3.00;;;;;;;9.19;25.11;98988.30;231336;202;273930;-54
2024/01/22 16:21:38;;;;;;;9.00;3.20;;;;;;;9.13;25.62;99012.52;231551;198;153419;-56
2024/01/22 16:26:41;;;;;;;7.90;3.30;;;;;;;9.13;25.79;98992.02;231515;200;138150;-56
2024/01/22 16:31:44;;;;;;;12.60;4.00;;;;;;;9.07;26.03;98988.48;231576;198;139599;-56
2024/01/22 16:36:49;;;;;;;10.20;4.70;;;;;;;9.01;26.24;98953.23;231534;198;153837;-56
2024/01/22 16:41:52;;;;;;;9.40;4.00;;;;;;;8.98;26.72;98969.17;231609;199;138372;-60
2024/01/22 16:46:56;;;;;;;13.10;4.00;;;;;;;8.85;27.12;98980.35;231420;198;138175;-56
2024/01/22 16:51:59;;;;;;;12.50;4.20;;;;;;;8.88;26.99;98975.17;231483;198;153324;-56
2024/01/22 16:57:02;;;;;;;11.50;4.70;;;;;;;8.91;26.93;98976.97;231438;199;138487;-54
2024/01/22 17:02:05;;;;;;;12.50;4.40;;;;;;;8.98;27.09;98976.41;231498;199;139673;-55
2024/01/22 17:07:11;;;;;;;11.20;4.30;;;;;;;9.02;27.13;98983.98;231512;206;154028;-56
2024/01/22 17:12:14;;;;;;;9.10;3.90;;;;;;;9.07;26.90;98995.02;231466;203;137646;-56
2024/01/22 17:17:17;;;;;;;9.90;4.00;;;;;;;9.12;26.77;99000.77;231648;198;138452;-54
2024/01/22 17:22:21;;;;;;;9.80;4.30;;;;;;;9.16;26.40;99005.30;231465;202;154031;-55
2024/01/22 17:27:24;;;;;;;7.50;4.10;;;;;;;9.21;25.87;99002.36;231527;203;138108;-56
2024/01/22 17:32:27;;;;;;;109.30;62.10;;;;;;;9.25;25.90;98997.39;231573;199;137577;-54
2024/01/22 17:37:31;;;;;;;12.40;5.50;;;;;;;9.30;25.90;98982.39;231577;198;153344;-56
2024/01/22 17:42:34;;;;;;;9.10;4.20;;;;;;;9.33;25.94;98967.52;231616;198;138251;-57
2024/01/22 17:47:37;;;;;;;8.90;3.60;;;;;;;9.33;25.82;98982.41;231760;198;138907;-56
2024/01/22 17:52:40;;;;;;;8.50;4.00;;;;;;;9.33;25.96;98979.18;231626;199;153133;-56
2024/01/22 17:57:45;;;;;;;7.50;3.60;;;;;;;9.34;26.54;98979.16;231620;198;138402;-55
2024/01/22 18:02:48;;;;;;;6.80;3.60;;;;;;;9.32;26.14;98984.54;231661;199;138547;-56
2024/01/22 18:07:52;;;;;;;8.30;3.70;;;;;;;9.33;25.62;98982.60;231639;198;153051;-56
2024/01/22 18:12:55;;;;;;;7.40;3.90;;;;;;;9.35;25.87;98980.17;231622;205;138631;-54
2024/01/22 18:17:59;;;;;;;8.20;4.30;;;;;;;9.33;26.17;98970.38;231714;198;139659;-56
2024/01/22 18:23:03;;;;;;;7.30;3.80;;;;;;;9.32;26.19;98964.93;231754;205;156128;-53
2024/01/22 18:28:09;;;;;;;9.50;3.80;;;;;;;9.31;26.24;98953.30;231626;199;153858;-51
2024/01/22 18:33:13;;;;;;;10.80;4.00;;;;;;;9.32;26.46;98957.45;231643;199;138724;-52
2024/01/22 18:38:16;;;;;;;8.90;4.30;;;;;;;9.32;26.78;98941.91;231645;199;153663;-52
2024/01/22 18:43:20;;;;;;;10.40;4.30;;;;;;;9.31;26.86;98942.49;231665;203;137960;-52
2024/01/22 18:48:23;;;;;;;8.80;4.40;;;;;;;9.29;26.51;98945.80;231580;198;138631;-52
2024/01/22 18:53:27;;;;;;;6.20;3.90;;;;;;;9.28;26.62;98937.90;231787;206;153530;-54
2024/01/22 18:58:30;;;;;;;12.40;4.10;;;;;;;9.23;27.05;98935.16;231613;199;137800;-54
2024/01/22 19:03:33;;;;;;;8.40;3.90;;;;;;;9.21;27.17;98937.91;231656;198;137342;-53
2024/01/22 19:08:37;;;;;;;9.40;4.30;;;;;;;9.22;26.53;98939.47;231668;205;153875;-52
2024/01/22 19:13:43;;;;;;;9.60;4.30;;;;;;;9.23;26.77;98932.52;231639;198;137203;-53
2024/01/22 19:18:47;;;;;;;6.80;4.10;;;;;;;9.22;26.99;98931.48;231667;198;137300;-52
2024/01/22 19:23:51;;;;;;;9.60;3.50;;;;;;;9.26;27.01;98935.73;231783;198;153798;-49
2024/01/22 19:28:54;;;;;;;8.70;3.90;;;;;;;9.28;27.52;98934.33;231567;205;138819;-54
2024/01/22 19:33:57;;;;;;;9.20;3.80;;;;;;;9.32;27.48;98937.29;231594;198;140187;-53
2024/01/22 19:39:00;;;;;;;46.80;27.10;;;;;;;9.39;28.38;98939.92;231519;205;154416;-52
2024/01/22 19:44:04;;;;;;;16.50;5.80;;;;;;;9.51;27.94;98942.06;231588;202;138457;-54
2024/01/22 19:49:07;;;;;;;7.80;3.80;;;;;;;9.52;27.74;98940.41;231624;206;137430;-53
2024/01/22 19:54:12;;;;;;;7.70;3.40;;;;;;;9.52;28.08;98943.02;231517;206;153055;-53
2024/01/22 19:59:15;;;;;;;7.80;3.90;;;;;;;9.48;28.17;98939.01;231632;198;137502;-52
2024/01/22 20:04:18;;;;;;;9.20;3.70;;;;;;;9.45;28.25;98951.77;231576;199;137978;-53
2024/01/22 20:09:24;;;;;;;8.20;3.60;;;;;;;9.45;28.32;98966.81;231638;199;153941;-51
2024/01/22 20:14:27;;;;;;;19.60;11.70;;;;;;;9.47;29.82;98969.88;231500;205;140101;-52
2024/01/22 20:19:30;;;;;;;10.00;4.60;;;;;;;9.45;30.77;98979.02;231422;202;142468;-54
2024/01/22 20:24:36;;;;;;;8.70;4.80;;;;;;;9.41;31.40;98997.16;231536;197;153208;-55
2024/01/22 20:29:39;;;;;;;8.70;4.90;;;;;;;9.43;32.67;99002.20;231165;198;139107;-54
2024/01/22 20:34:42;;;;;;;10.20;4.40;;;;;;;9.40;34.14;99012.64;231355;198;137499;-56
2024/01/22 20:39:45;;;;;;;10.10;5.00;;;;;;;9.39;35.24;99021.36;231446;205;154814;-55
2024/01/22 20:44:49;;;;;;;10.50;5.20;;;;;;;9.40;36.47;99016.32;231479;205;139560;-54
2024/01/22 20:49:52;;;;;;;474.90;330.40;;;;;;;9.39;39.18;99019.21;231467;206;137362;-53
2024/01/22 20:54:55;;;;;;;21.10;11.50;;;;;;;9.47;39.30;99032.73;230978;198;236331;-55
2024/01/22 20:59:58;;;;;;;11.70;5.60;;;;;;;9.34;39.36;99036.48;231566;199;138168;-55
2024/01/22 21:05:03;;;;;;;12.40;5.00;;;;;;;9.26;40.26;99032.88;231445;198;138536;-57
2024/01/22 21:10:07;;;;;;;7.30;4.10;;;;;;;9.11;42.36;99017.10;231620;198;153408;-56
2024/01/22 21:15:12;;;;;;;7.90;4.10;;;;;;;8.95;44.03;99028.46;231565;202;137950;-54
2024/01/22 21:20:17;;;;;;;9.30;3.80;;;;;;;8.84;44.94;99034.35;231619;197;138148;-56
2024/01/22 21:25:20;;;;;;;6.20;3.80;;;;;;;8.75;46.13;99021.08;231621;205;154662;-54
2024/01/22 21:30:26;;;;;;;10.10;3.70;;;;;;;8.64;46.61;99026.92;231627;198;138670;-54
2024/01/22 21:35:29;;;;;;;13.00;3.80;;;;;;;8.60;46.95;99028.08;231802;198;138925;-54
2024/01/22 21:40:32;;;;;;;11.10;3.50;;;;;;;8.55;47.12;99027.26;231722;198;153364;-55
2024/01/22 21:45:35;;;;;;;13.10;3.70;;;;;;;8.56;47.12;99038.73;231636;198;137474;-54
2024/01/22 21:50:38;;;;;;;6.20;3.50;;;;;;;8.54;47.08;99049.63;231671;206;137968;-55
2024/01/22 21:55:41;;;;;;;6.60;3.80;;;;;;;8.55;47.10;99045.11;231652;199;154351;-53
2024/01/22 22:00:45;;;;;;;8.00;3.40;;;;;;;8.55;47.11;99058.05;231725;198;137565;-55
2024/01/22 22:05:48;;;;;;;6.10;3.60;;;;;;;8.55;47.14;99049.73;231268;205;138708;-55
2024/01/22 22:10:53;;;;;;;7.70;3.60;;;;;;;8.53;47.37;99049.10;231717;198;154027;-55
2024/01/22 22:15:56;;;;;;;7.50;3.40;;;;;;;8.51;47.35;99065.46;231709;197;137499;-54
2024/01/22 22:20:59;;;;;;;7.00;3.50;;;;;;;8.49;47.58;99072.48;231420;198;138762;-55
2024/01/22 22:26:03;;;;;;;6.00;3.50;;;;;;;8.44;47.82;99079.30;231621;199;153082;-54
2024/01/22 22:31:09;;;;;;;6.10;3.70;;;;;;;8.41;47.90;99086.70;231640;203;139101;-53
2024/01/22 22:36:15;;;;;;;;;;;;;;;8.38;48.27;99096.95;231684;205;137981;-54
2024/01/22 22:41:19;;;;;;;5.10;3.50;;;;;;;8.32;48.74;99095.30;231827;199;154300;-53
2024/01/22 22:46:22;;;;;;;9.70;3.40;;;;;;;8.28;49.25;99107.84;231651;198;138381;-53
2024/01/22 22:51:25;;;;;;;5.50;3.50;;;;;;;8.28;49.89;99112.45;231714;198;137965;-54
2024/01/22 22:56:28;;;;;;;7.30;3.80;;;;;;;8.22;50.99;99121.60;231721;198;153073;-53
2024/01/22 23:01:31;;;;;;;8.80;4.10;;;;;;;8.13;52.19;99120.66;231635;198;137703;-53
2024/01/22 23:06:35;;;;;;;6.40;3.80;;;;;;;7.97;54.72;99125.01;231865;198;138149;-52
2024/01/22 23:11:38;;;;;;;7.00;3.90;;;;;;;7.77;56.48;99129.52;231869;205;154671;-54
2024/01/22 23:16:41;;;;;;;7.40;3.70;;;;;;;7.64;57.73;99127.84;231703;198;137270;-55
2024/01/22 23:21:44;;;;;;;7.10;3.90;;;;;;;7.51;59.22;99125.45;231687;206;137901;-54